createdAt,value
2018-03-02T00:01:31.820Z,34.47
2018-03-02T00:04:01.009Z,40.23
2018-03-02T00:06:30.628Z,34.70
2018-03-02T00:08:58.844Z,37.33
2018-03-02T00:11:26.956Z,33.30
2018-03-02T00:13:54.911Z,35.73
2018-03-02T00:16:23.027Z,37.07
2018-03-02T00:18:52.236Z,34.60
2018-03-02T00:21:20.296Z,35.93
2018-03-02T00:23:48.372Z,35.43
2018-03-02T00:26:16.706Z,33.60
2018-03-02T00:28:44.913Z,34.67
2018-03-02T00:31:12.287Z,36.20
2018-03-02T00:33:40.629Z,37.90
2018-03-02T00:36:14.326Z,36.37
2018-03-02T00:38:43.354Z,37.00
2018-03-02T00:41:11.597Z,36.17
2018-03-02T00:43:40.313Z,42.17
2018-03-02T00:46:07.733Z,40.47
2018-03-02T00:48:35.630Z,39.00
2018-03-02T00:51:07.468Z,34.93
2018-03-02T00:53:35.913Z,36.73
2018-03-02T00:56:04.549Z,40.13
2018-03-02T00:58:31.919Z,37.40
2018-03-02T01:01:00.371Z,42.03
2018-03-02T01:03:30.787Z,32.83
2018-03-02T01:06:00.895Z,37.17
2018-03-02T01:08:29.195Z,36.50
2018-03-02T01:10:57.774Z,37.83
2018-03-02T01:13:26.083Z,40.73
2018-03-02T01:15:53.423Z,41.03
2018-03-02T01:18:20.804Z,35.27
2018-03-02T01:20:50.332Z,36.57
2018-03-02T01:23:17.665Z,34.90
2018-03-02T01:25:46.711Z,38.93
2018-03-02T01:28:14.115Z,38.17
2018-03-02T01:30:42.300Z,35.70
2018-03-02T01:33:09.673Z,38.50
2018-03-02T01:35:37.749Z,38.13
2018-03-02T01:38:06.103Z,34.93
2018-03-02T01:40:33.456Z,40.93
2018-03-02T01:43:00.903Z,39.30
2018-03-02T01:45:29.097Z,38.73
2018-03-02T01:47:56.717Z,36.43
2018-03-02T01:50:25.014Z,34.80
2018-03-02T01:52:54.125Z,41.53
2018-03-02T01:55:22.487Z,34.70
2018-03-02T01:57:50.244Z,38.40
2018-03-02T02:00:17.987Z,35.10
2018-03-02T02:02:46.243Z,39.37
2018-03-02T02:05:15.204Z,38.60
2018-03-02T02:07:43.368Z,37.50
2018-03-02T02:10:11.200Z,36.30
2018-03-02T02:12:40.108Z,37.43
2018-03-02T02:15:08.380Z,36.23
2018-03-02T02:17:35.864Z,39.87
2018-03-02T02:20:03.200Z,39.97
2018-03-02T02:22:30.732Z,38.20
2018-03-02T02:24:58.510Z,36.07
2018-03-02T02:27:25.877Z,37.60
2018-03-02T02:29:53.284Z,35.37
2018-03-02T02:32:21.363Z,36.93
2018-03-02T02:34:48.777Z,38.97
2018-03-02T02:37:16.176Z,39.07
2018-03-02T02:39:44.345Z,36.83
2018-03-02T02:42:12.826Z,39.03
2018-03-02T02:44:40.903Z,40.37
2018-03-02T02:47:09.824Z,36.13
2018-03-02T02:49:37.179Z,36.17
2018-03-02T02:52:05.269Z,34.93
2018-03-02T02:54:33.584Z,39.83
2018-03-02T02:57:01.293Z,37.13
2018-03-02T02:59:29.124Z,39.50
2018-03-02T03:01:56.560Z,39.57
2018-03-02T03:04:25.264Z,37.47
2018-03-02T03:06:52.774Z,37.73
2018-03-02T03:09:21.062Z,40.27
2018-03-02T03:11:50.684Z,39.83
2018-03-02T03:14:18.244Z,36.13
2018-03-02T03:16:46.379Z,37.73
2018-03-02T03:19:13.753Z,35.23
2018-03-02T03:21:41.824Z,39.87
2018-03-02T03:24:11.051Z,34.33
2018-03-02T03:26:39.159Z,36.40
2018-03-02T03:29:07.675Z,38.87
2018-03-02T03:31:35.103Z,37.10
2018-03-02T03:34:03.564Z,35.70
2018-03-02T03:36:31.704Z,37.47
2018-03-02T03:38:59.751Z,35.57
2018-03-02T03:41:28.774Z,37.77
2018-03-02T03:43:56.858Z,38.77
2018-03-02T03:46:24.455Z,39.80
2018-03-02T03:48:53.870Z,40.40
2018-03-02T03:51:22.254Z,38.63
2018-03-02T03:53:49.612Z,38.83
2018-03-02T03:56:16.985Z,39.43
2018-03-02T03:58:45.124Z,38.27
2018-03-02T04:01:14.443Z,36.13
2018-03-02T04:03:42.532Z,38.60
2018-03-02T04:06:10.630Z,35.90
2018-03-02T04:08:37.972Z,37.87
2018-03-02T04:11:05.288Z,38.30
2018-03-02T04:13:33.606Z,37.10
2018-03-02T04:16:01.956Z,33.40
2018-03-02T04:18:30.236Z,39.40
2018-03-02T04:20:59.191Z,39.70
2018-03-02T04:23:27.154Z,40.40
2018-03-02T04:25:55.039Z,40.63
2018-03-02T04:28:23.657Z,36.40
2018-03-02T04:30:51.792Z,34.13
2018-03-02T04:33:19.934Z,36.33
2018-03-02T04:35:48.452Z,38.03
2018-03-02T04:38:15.861Z,36.90
2018-03-02T04:40:43.248Z,38.00
2018-03-02T04:43:12.547Z,35.33
2018-03-02T04:45:41.788Z,40.23
2018-03-02T04:48:09.643Z,39.00
2018-03-02T04:50:37.895Z,37.20
2018-03-02T04:53:05.275Z,33.47
2018-03-02T04:55:34.999Z,37.70
2018-03-02T04:58:03.112Z,36.43
2018-03-02T05:00:30.504Z,41.53
2018-03-02T05:02:58.812Z,37.70
2018-03-02T05:05:27.488Z,38.70
2018-03-02T05:07:54.828Z,40.00
2018-03-02T05:10:23.691Z,37.77
2018-03-02T05:12:51.960Z,41.37
2018-03-02T05:15:20.103Z,40.80
2018-03-02T05:17:47.478Z,41.03
2018-03-02T05:20:16.554Z,40.17
2018-03-02T05:22:44.695Z,37.43
2018-03-02T05:25:12.367Z,39.57
2018-03-02T05:27:39.737Z,35.20
2018-03-02T05:30:07.827Z,33.67
2018-03-02T05:32:36.194Z,35.77
2018-03-02T05:35:05.465Z,38.07
2018-03-02T05:37:33.652Z,42.13
2018-03-02T05:40:01.913Z,39.80
2018-03-02T05:42:30.259Z,39.60
2018-03-02T05:44:58.519Z,39.33
2018-03-02T05:47:25.917Z,40.93
2018-03-02T05:49:53.267Z,38.37
2018-03-02T05:52:21.349Z,35.13
2018-03-02T05:54:49.772Z,38.83
2018-03-02T05:57:17.390Z,40.30
2018-03-02T05:59:45.912Z,38.80
2018-03-02T06:02:13.402Z,41.03
2018-03-02T06:04:41.511Z,37.03
2018-03-02T06:07:09.576Z,38.43
2018-03-02T06:09:37.076Z,39.73
2018-03-02T06:12:05.394Z,37.77
2018-03-02T06:14:33.501Z,39.50
2018-03-02T06:17:01.834Z,34.10
2018-03-02T06:19:29.892Z,39.50
2018-03-02T06:21:58.191Z,39.87
2018-03-02T06:24:25.647Z,43.70
2018-03-02T06:26:53.845Z,41.00
2018-03-02T06:29:21.235Z,36.70
2018-03-02T06:31:49.309Z,37.87
2018-03-02T06:34:17.748Z,41.07
2018-03-02T06:36:45.096Z,38.83
2018-03-02T06:39:13.925Z,40.90
2018-03-02T06:41:44.616Z,40.33
2018-03-02T06:44:13.308Z,41.40
2018-03-02T06:46:41.568Z,39.03
2018-03-02T06:49:09.687Z,40.23
2018-03-02T06:51:37.792Z,38.90
2018-03-02T06:54:06.798Z,41.03
2018-03-02T06:56:34.995Z,39.00
2018-03-02T06:59:02.924Z,36.63
2018-03-02T07:01:31.257Z,37.77
2018-03-02T07:03:59.316Z,39.97
2018-03-02T07:06:27.394Z,40.07
2018-03-02T07:08:55.002Z,40.37
2018-03-02T07:11:23.116Z,41.47
2018-03-02T07:13:50.437Z,40.27
2018-03-02T07:16:18.546Z,41.33
2018-03-02T07:18:45.875Z,37.57
2018-03-02T07:21:13.969Z,37.17
2018-03-02T07:23:41.316Z,38.30
2018-03-02T07:26:08.635Z,41.30
2018-03-02T07:28:36.924Z,37.47
2018-03-02T07:31:05.191Z,38.47
2018-03-02T07:33:33.285Z,37.80
2018-03-02T07:36:01.405Z,38.67
2018-03-02T07:38:28.795Z,37.80
2018-03-02T07:40:57.042Z,37.60
2018-03-02T07:43:24.803Z,38.23
2018-03-02T07:45:53.056Z,34.90
2018-03-02T07:48:20.415Z,37.60
2018-03-02T07:50:48.652Z,44.20
2018-03-02T07:53:16.725Z,40.50
2018-03-02T07:55:45.011Z,41.53
2018-03-02T07:58:12.403Z,36.60
2018-03-02T08:00:40.891Z,37.63
2018-03-02T08:03:09.153Z,38.67
2018-03-02T08:05:36.553Z,39.17
2018-03-02T08:08:04.830Z,36.27
2018-03-02T08:10:33.579Z,37.90
2018-03-02T08:13:01.123Z,35.23
2018-03-02T08:15:28.593Z,32.63
2018-03-02T08:17:55.952Z,37.53
2018-03-02T08:20:24.252Z,36.90
2018-03-02T08:22:52.520Z,36.67
2018-03-02T08:25:19.945Z,39.47
2018-03-02T08:27:47.362Z,40.40
2018-03-02T08:30:14.693Z,39.73
2018-03-02T08:32:42.984Z,39.07
2018-03-02T08:35:11.373Z,37.67
2018-03-02T08:37:38.820Z,33.80
2018-03-02T08:40:06.975Z,37.30
2018-03-02T08:42:35.932Z,35.97
2018-03-02T08:45:04.232Z,35.97
2018-03-02T08:47:31.574Z,37.83
2018-03-02T08:49:58.930Z,39.75
2018-03-02T08:52:26.651Z,35.80
2018-03-02T08:54:54.016Z,38.97
2018-03-02T08:57:22.104Z,35.27
2018-03-02T08:59:49.461Z,36.03
2018-03-02T09:02:17.795Z,36.20
2018-03-02T09:04:45.874Z,36.47
2018-03-02T09:07:13.949Z,35.30
2018-03-02T09:09:42.292Z,34.53
2018-03-02T09:12:09.695Z,35.13
2018-03-02T09:14:38.462Z,38.20
2018-03-02T09:17:06.905Z,35.90
2018-03-02T09:19:34.278Z,41.47
2018-03-02T09:22:02.382Z,34.63
2018-03-02T09:24:30.554Z,37.33
2018-03-02T09:26:57.859Z,38.33
2018-03-02T09:29:25.240Z,40.13
2018-03-02T09:31:53.512Z,39.50
2018-03-02T09:34:21.852Z,39.57
2018-03-02T09:36:49.195Z,38.80
2018-03-02T09:39:16.589Z,34.53
2018-03-02T09:41:45.031Z,35.97
2018-03-02T09:44:12.681Z,35.13
2018-03-02T09:46:40.067Z,36.77
2018-03-02T09:49:08.305Z,43.50
2018-03-02T09:51:36.574Z,36.23
2018-03-02T09:54:03.964Z,41.33
2018-03-02T09:56:32.427Z,42.40
2018-03-02T09:58:59.774Z,38.30
2018-03-02T10:01:27.868Z,35.40
2018-03-02T10:03:56.176Z,44.47
2018-03-02T10:06:24.371Z,40.30
2018-03-02T10:08:51.728Z,36.07
2018-03-02T10:11:20.324Z,37.87
2018-03-02T10:13:47.725Z,37.87
2018-03-02T10:16:15.096Z,38.40
2018-03-02T10:18:42.492Z,43.90
2018-03-02T10:21:09.884Z,40.37
2018-03-02T10:23:38.224Z,36.93
2018-03-02T10:26:05.603Z,37.73
2018-03-02T10:28:34.017Z,33.60
2018-03-02T10:31:02.136Z,41.30
2018-03-02T10:33:30.364Z,43.53
2018-03-02T10:35:58.764Z,44.60
2018-03-02T10:38:26.905Z,40.73
2018-03-02T10:40:54.440Z,40.33
2018-03-02T10:43:21.800Z,37.47
2018-03-02T10:45:50.091Z,38.93
2018-03-02T10:48:17.431Z,36.60
2018-03-02T10:50:46.596Z,40.57
2018-03-02T10:53:14.249Z,34.47
2018-03-02T10:55:42.360Z,41.00
2018-03-02T10:58:10.676Z,42.00
2018-03-02T11:00:44.957Z,47.00
2018-03-02T11:06:13.785Z,42.73
2018-03-02T11:08:41.950Z,40.30
2018-03-02T11:11:10.235Z,45.07
2018-03-02T11:13:38.335Z,39.97
2018-03-02T11:16:06.110Z,40.40
2018-03-02T11:18:34.579Z,41.50
2018-03-02T11:21:02.925Z,39.37
2018-03-02T11:23:31.311Z,39.63
2018-03-02T11:25:58.945Z,41.33
2018-03-02T11:28:27.096Z,43.40
2018-03-02T11:30:54.484Z,41.33
2018-03-02T11:33:22.943Z,41.17
2018-03-02T11:36:08.428Z,39.37
2018-03-02T11:41:30.303Z,41.60
2018-03-02T11:44:06.902Z,39.53
2018-03-02T11:46:35.028Z,40.70
2018-03-02T11:51:40.624Z,36.87
2018-03-02T11:54:09.076Z,41.13
2018-03-02T11:56:36.547Z,42.00
2018-03-02T11:59:06.506Z,38.33
2018-03-02T12:01:36.762Z,34.80
2018-03-02T12:04:04.152Z,36.67
2018-03-02T12:06:39.425Z,41.73
2018-03-02T12:09:06.863Z,38.27
2018-03-02T12:11:34.272Z,39.60
2018-03-02T12:14:02.521Z,39.87
2018-03-02T12:16:29.969Z,40.67
2018-03-02T12:18:57.544Z,41.57
2018-03-02T12:21:24.922Z,38.30
2018-03-02T12:23:53.081Z,37.63
2018-03-02T12:26:23.384Z,37.37
2018-03-02T12:28:51.508Z,36.03
2018-03-02T12:31:19.620Z,40.37
2018-03-02T12:33:47.143Z,39.03
2018-03-02T12:36:15.260Z,40.63
2018-03-02T12:38:42.664Z,38.57
2018-03-02T12:41:10.801Z,38.20
2018-03-02T12:43:38.312Z,41.43
2018-03-02T12:46:05.659Z,36.30
2018-03-02T12:48:33.989Z,42.47
2018-03-02T12:51:01.590Z,36.67
2018-03-02T12:53:29.669Z,41.20
2018-03-02T12:55:57.137Z,43.10
2018-03-02T12:58:24.555Z,38.33
2018-03-02T13:00:52.715Z,38.77
2018-03-02T13:03:22.755Z,40.27
2018-03-02T13:05:50.982Z,41.03
2018-03-02T13:08:18.368Z,42.40
2018-03-02T13:10:46.691Z,41.53
2018-03-02T13:13:14.057Z,38.27
2018-03-02T13:15:45.241Z,38.93
2018-03-02T13:18:25.469Z,40.50
2018-03-02T13:20:52.765Z,39.13
2018-03-02T13:23:20.631Z,42.17
2018-03-02T13:25:54.729Z,41.43
2018-03-02T13:28:29.200Z,37.70
2018-03-02T13:30:56.568Z,34.57
2018-03-02T13:33:37.144Z,37.70
2018-03-02T13:36:07.291Z,39.17
2018-03-02T13:38:35.496Z,38.87
2018-03-02T13:41:14.959Z,37.20
2018-03-02T13:43:42.488Z,41.43
2018-03-02T13:46:09.905Z,39.37
2018-03-02T13:48:50.563Z,38.70
2018-03-02T13:51:17.893Z,41.97
2018-03-02T13:53:45.386Z,41.13
2018-03-02T13:56:25.907Z,41.70
2018-03-02T13:58:53.198Z,39.50
2018-03-02T14:01:20.591Z,40.97
2018-03-02T14:04:01.779Z,39.27
2018-03-02T14:06:29.070Z,38.33
2018-03-02T14:08:56.425Z,38.20
2018-03-02T14:11:23.917Z,41.33
2018-03-02T14:13:52.410Z,41.73
2018-03-02T14:16:19.835Z,41.77
2018-03-02T14:18:47.332Z,40.70
2018-03-02T14:21:16.671Z,37.92
2018-03-02T14:23:44.137Z,41.63
2018-03-02T14:26:11.554Z,40.27
2018-03-02T14:28:38.953Z,40.33
2018-03-02T14:31:06.388Z,41.80
2018-03-02T14:33:34.483Z,43.20
2018-03-02T14:36:01.831Z,38.27
2018-03-02T14:38:30.161Z,38.37
2018-03-02T14:40:58.294Z,41.47
2018-03-02T14:43:25.707Z,38.80
2018-03-02T14:45:53.186Z,41.83
2018-03-02T14:48:21.320Z,40.10
2018-03-02T14:50:49.411Z,40.87
2018-03-02T14:53:17.773Z,41.87
2018-03-02T14:55:45.137Z,38.20
2018-03-02T14:58:13.281Z,44.33
2018-03-02T15:00:41.348Z,46.80
2018-03-02T15:03:09.455Z,42.53
2018-03-02T15:05:36.806Z,39.20
2018-03-02T15:08:04.916Z,38.70
2018-03-02T15:10:32.240Z,44.57
2018-03-02T15:12:59.656Z,42.23
2018-03-02T15:15:27.796Z,43.47
2018-03-02T15:17:55.195Z,43.63
2018-03-02T15:20:23.495Z,46.30
2018-03-02T15:22:51.910Z,43.47
2018-03-02T15:25:19.412Z,44.40
2018-03-02T15:27:47.509Z,43.33
2018-03-02T15:30:15.857Z,44.43
2018-03-02T15:32:44.021Z,42.93
2018-03-02T15:35:12.200Z,43.37
2018-03-02T15:37:40.502Z,44.83
2018-03-02T15:40:08.663Z,42.77
2018-03-02T15:42:36.061Z,45.53
2018-03-02T15:45:04.417Z,39.40
2018-03-02T15:47:32.735Z,46.33
2018-03-02T15:50:00.300Z,47.63
2018-03-02T15:52:28.591Z,42.47
2018-03-02T15:54:56.905Z,43.73
2018-03-02T15:57:25.001Z,39.60
2018-03-02T15:59:53.312Z,41.53
2018-03-02T16:02:21.608Z,44.37
2018-03-02T16:04:49.288Z,45.80
2018-03-02T16:07:16.797Z,45.53
2018-03-02T16:09:44.239Z,42.03
2018-03-02T16:12:12.405Z,42.57
2018-03-02T16:14:39.816Z,41.20
2018-03-02T16:17:07.991Z,45.47
2018-03-02T16:19:35.377Z,46.87
2018-03-02T16:22:02.835Z,44.43
2018-03-02T16:24:31.004Z,37.77
2018-03-02T16:26:59.112Z,41.27
2018-03-02T16:29:27.385Z,45.33
2018-03-02T16:31:55.503Z,40.33
2018-03-02T16:34:23.843Z,45.57
2018-03-02T16:36:52.341Z,40.17
2018-03-02T16:39:20.477Z,45.30
2018-03-02T16:41:48.759Z,42.27
2018-03-02T16:44:17.260Z,38.70
2018-03-02T16:46:45.347Z,41.47
2018-03-02T16:49:12.734Z,38.60
2018-03-02T16:51:40.168Z,40.57
2018-03-02T16:54:08.249Z,44.00
2018-03-02T16:56:35.641Z,43.87
2018-03-02T16:59:04.069Z,42.93
2018-03-02T17:01:31.473Z,45.33
2018-03-02T17:03:59.740Z,41.10
2018-03-02T17:06:27.087Z,43.50
2018-03-02T17:08:55.406Z,44.10
2018-03-02T17:11:22.878Z,42.37
2018-03-02T17:13:50.284Z,41.53
2018-03-02T17:16:18.567Z,41.87
2018-03-02T17:18:46.012Z,43.60
2018-03-02T17:21:14.298Z,43.37
2018-03-02T17:23:41.692Z,43.37
2018-03-02T17:26:09.116Z,44.77
2018-03-02T17:28:37.455Z,37.50
2018-03-02T17:31:05.356Z,42.40
2018-03-02T17:33:33.656Z,46.37
2018-03-02T17:36:01.060Z,42.47
2018-03-02T17:38:28.600Z,40.97
2018-03-02T17:40:55.992Z,40.10
2018-03-02T17:43:24.322Z,46.00
2018-03-02T17:45:52.639Z,47.03
2018-03-02T17:48:20.927Z,41.07
2018-03-02T17:50:48.595Z,44.17
2018-03-02T17:53:16.072Z,44.20
2018-03-02T17:55:44.337Z,46.47
2018-03-02T17:58:12.735Z,37.83
2018-03-02T18:00:41.027Z,46.83
2018-03-02T18:03:08.404Z,46.03
2018-03-02T18:05:36.893Z,53.07
2018-03-02T18:08:04.339Z,48.87
2018-03-02T18:10:31.684Z,46.20
2018-03-02T18:12:59.808Z,44.50
2018-03-02T18:15:27.960Z,47.70
2018-03-02T18:17:55.309Z,46.13
2018-03-02T18:20:23.464Z,47.27
2018-03-02T18:22:50.882Z,41.87
2018-03-02T18:25:19.197Z,42.10
2018-03-02T18:27:46.585Z,46.83
2018-03-02T18:30:14.759Z,45.77
2018-03-02T18:32:43.031Z,48.77
2018-03-02T18:35:10.561Z,47.97
2018-03-02T18:37:37.974Z,44.50
2018-03-02T18:40:06.076Z,48.83
2018-03-02T18:42:33.512Z,44.77
2018-03-02T18:45:01.871Z,47.67
2018-03-02T18:47:29.993Z,44.83
2018-03-02T18:49:58.288Z,45.27
2018-03-02T18:52:25.694Z,41.70
2018-03-02T18:54:53.961Z,49.33
2018-03-02T18:57:22.366Z,39.77
2018-03-02T18:59:50.473Z,44.57
2018-03-02T19:02:18.810Z,44.27
2018-03-02T19:04:46.184Z,43.47
2018-03-02T19:07:13.632Z,47.67
2018-03-02T19:09:41.068Z,47.50
2018-03-02T19:12:09.267Z,44.37
2018-03-02T19:14:36.672Z,49.63
2018-03-02T19:17:04.097Z,41.43
2018-03-02T19:19:31.512Z,36.47
2018-03-02T19:21:58.867Z,44.67
2018-03-02T19:24:26.964Z,44.70
2018-03-02T19:26:55.267Z,47.40
2018-03-02T19:29:22.660Z,45.07
2018-03-02T19:31:50.970Z,46.47
2018-03-02T19:34:18.475Z,50.00
2018-03-02T19:36:46.796Z,46.77
2018-03-02T19:39:15.284Z,50.27
2018-03-02T19:41:43.560Z,49.10
2018-03-02T19:44:11.596Z,49.07
2018-03-02T19:46:39.692Z,49.10
2018-03-02T19:49:07.112Z,56.57
2018-03-02T19:51:34.509Z,55.27
2018-03-02T19:54:02.840Z,44.27
2018-03-02T19:56:31.184Z,45.17
2018-03-02T19:58:59.413Z,51.40
2018-03-02T20:01:26.871Z,48.43
2018-03-02T20:03:55.248Z,47.03
2018-03-02T20:06:23.411Z,44.40
2018-03-02T20:08:51.736Z,53.10
2018-03-02T20:11:19.136Z,48.77
2018-03-02T20:13:46.606Z,56.67
2018-03-02T20:16:14.888Z,53.17
2018-03-02T20:18:42.268Z,54.50
2018-03-02T20:21:10.402Z,48.83
2018-03-02T20:23:38.682Z,48.67
2018-03-02T20:26:06.886Z,54.07
2018-03-02T20:28:34.234Z,47.23
2018-03-02T20:31:01.648Z,43.80
2018-03-02T20:33:29.758Z,56.23
2018-03-02T20:38:31.850Z,46.90
2018-03-02T20:41:00.121Z,54.77
2018-03-02T20:43:27.548Z,56.23
2018-03-02T20:45:55.639Z,52.03
2018-03-02T20:48:23.762Z,54.10
2018-03-02T20:50:52.118Z,63.97
2018-03-02T20:53:19.540Z,48.83
2018-03-02T20:55:46.948Z,53.77
2018-03-02T20:58:15.316Z,56.07
2018-03-02T21:00:42.623Z,58.27
2018-03-02T21:03:10.741Z,56.17
2018-03-02T21:05:38.277Z,58.45
2018-03-02T21:08:06.664Z,58.60
2018-03-02T21:10:34.142Z,55.10
2018-03-02T21:13:01.697Z,55.77
2018-03-02T21:15:29.044Z,55.00
2018-03-02T21:17:57.739Z,51.07
2018-03-02T21:20:26.688Z,47.87
2018-03-02T21:22:55.040Z,48.73
2018-03-02T21:25:23.323Z,51.30
2018-03-02T21:27:51.602Z,46.87
2018-03-02T21:30:20.918Z,49.93
2018-03-02T21:32:48.338Z,48.97
2018-03-02T21:35:17.181Z,55.37
2018-03-02T21:37:44.684Z,48.83
2018-03-02T21:40:12.789Z,56.03
2018-03-02T21:42:40.209Z,48.70
2018-03-02T21:45:08.439Z,50.20
2018-03-02T21:47:35.816Z,49.10
2018-03-02T21:50:04.197Z,45.37
2018-03-02T21:52:31.611Z,55.17
2018-03-02T21:54:58.969Z,64.17
2018-03-02T21:57:26.503Z,58.77
2018-03-02T21:59:54.802Z,62.53
2018-03-02T22:02:22.167Z,63.73
2018-03-02T22:04:50.511Z,59.50
2018-03-02T22:07:18.808Z,62.70
2018-03-02T22:09:46.286Z,61.20
2018-03-02T22:12:13.661Z,65.53
2018-03-02T22:14:41.741Z,59.07
2018-03-02T22:17:10.125Z,56.27
2018-03-02T22:19:38.439Z,60.30
2018-03-02T22:22:05.800Z,60.63
2018-03-02T22:24:33.911Z,65.90
2018-03-02T22:27:02.228Z,71.87
2018-03-02T22:29:29.740Z,61.13
2018-03-02T22:31:57.112Z,61.97
2018-03-02T22:34:24.505Z,61.43
2018-03-02T22:36:51.916Z,65.87
2018-03-02T22:39:20.404Z,63.83
2018-03-02T22:41:47.804Z,62.07
2018-03-02T22:44:15.193Z,64.07
2018-03-02T22:46:42.575Z,65.90
2018-03-02T22:49:10.051Z,66.23
2018-03-02T22:51:38.177Z,67.37
2018-03-02T22:54:06.559Z,63.00
2018-03-02T22:56:34.036Z,63.57
2018-03-02T22:59:02.408Z,64.20
2018-03-02T23:01:31.187Z,63.37
2018-03-02T23:03:59.505Z,66.47
2018-03-02T23:06:27.608Z,62.77
2018-03-02T23:08:55.880Z,64.63
2018-03-02T23:11:23.297Z,61.80
2018-03-02T23:13:51.591Z,72.10
2018-03-02T23:16:19.872Z,62.27
2018-03-02T23:18:48.264Z,65.90
2018-03-02T23:21:15.663Z,61.53
2018-03-02T23:23:43.973Z,66.93
2018-03-02T23:26:12.212Z,70.97
2018-03-02T23:28:39.600Z,68.53
2018-03-02T23:31:07.737Z,75.33
2018-03-02T23:33:37.295Z,72.43
2018-03-02T23:36:04.672Z,63.47
2018-03-02T23:38:32.808Z,68.37
2018-03-02T23:41:01.065Z,72.63
2018-03-02T23:43:28.494Z,72.93
2018-03-02T23:45:56.764Z,71.70
2018-03-02T23:48:24.344Z,67.67
2018-03-02T23:50:52.647Z,70.60
2018-03-02T23:53:20.012Z,68.53
2018-03-02T23:55:47.386Z,69.77
2018-03-02T23:58:15.436Z,72.70
